sensor_id;sensor_type;location;lat;lon;timestamp;P1;durP1;ratioP1;P2;durP2;ratioP2
72354;SDS011;60314;55.040;73.076;2022-12-07T00:01:16;30.98;;;10.15;;
72354;SDS011;60314;55.040;73.076;2022-12-07T00:03:53;25.90;;;8.57;;
72354;SDS011;60314;55.040;73.076;2022-12-07T00:06:26;33.80;;;10.30;;
72354;SDS011;60314;55.040;73.076;2022-12-07T00:08:52;29.20;;;10.30;;
72354;SDS011;60314;55.040;73.076;2022-12-07T00:11:19;26.70;;;9.00;;
72354;SDS011;60314;55.040;73.076;2022-12-07T00:13:50;27.02;;;9.55;;
72354;SDS011;60314;55.040;73.076;2022-12-07T00:16:23;31.05;;;9.98;;
72354;SDS011;60314;55.040;73.076;2022-12-07T00:18:51;28.95;;;9.50;;
72354;SDS011;60314;55.040;73.076;2022-12-07T00:21:27;28.45;;;9.73;;
72354;SDS011;60314;55.040;73.076;2022-12-07T00:23:55;30.25;;;10.27;;
72354;SDS011;60314;55.040;73.076;2022-12-07T00:26:29;28.80;;;10.35;;
72354;SDS011;60314;55.040;73.076;2022-12-07T00:29:01;26.80;;;9.13;;
72354;SDS011;60314;55.040;73.076;2022-12-07T00:31:33;29.02;;;9.55;;
72354;SDS011;60314;55.040;73.076;2022-12-07T00:34:13;27.00;;;10.13;;
72354;SDS011;60314;55.040;73.076;2022-12-07T00:39:18;32.25;;;9.63;;
72354;SDS011;60314;55.040;73.076;2022-12-07T00:41:44;33.90;;;10.05;;
72354;SDS011;60314;55.040;73.076;2022-12-07T00:44:10;26.10;;;9.85;;
72354;SDS011;60314;55.040;73.076;2022-12-07T00:46:37;29.50;;;11.32;;
72354;SDS011;60314;55.040;73.076;2022-12-07T00:49:09;34.80;;;11.32;;
72354;SDS011;60314;55.040;73.076;2022-12-07T00:51:35;27.67;;;10.23;;
72354;SDS011;60314;55.040;73.076;2022-12-07T00:54:02;27.90;;;11.00;;
72354;SDS011;60314;55.040;73.076;2022-12-07T00:56:28;27.27;;;9.98;;
72354;SDS011;60314;55.040;73.076;2022-12-07T00:59:05;31.88;;;9.52;;
72354;SDS011;60314;55.040;73.076;2022-12-07T01:01:33;29.25;;;10.18;;
72354;SDS011;60314;55.040;73.076;2022-12-07T01:04:01;26.85;;;10.30;;
72354;SDS011;60314;55.040;73.076;2022-12-07T01:06:29;32.15;;;10.90;;
72354;SDS011;60314;55.040;73.076;2022-12-07T01:08:56;33.45;;;11.07;;
72354;SDS011;60314;55.040;73.076;2022-12-07T01:11:24;35.47;;;11.07;;
72354;SDS011;60314;55.040;73.076;2022-12-07T01:13:53;35.30;;;10.85;;
72354;SDS011;60314;55.040;73.076;2022-12-07T01:16:25;32.70;;;10.18;;
72354;SDS011;60314;55.040;73.076;2022-12-07T01:21:21;24.83;;;9.02;;
72354;SDS011;60314;55.040;73.076;2022-12-07T01:23:49;33.25;;;9.50;;
72354;SDS011;60314;55.040;73.076;2022-12-07T01:26:21;29.38;;;9.48;;
72354;SDS011;60314;55.040;73.076;2022-12-07T01:28:49;29.58;;;10.18;;
72354;SDS011;60314;55.040;73.076;2022-12-07T01:31:22;30.33;;;10.68;;
72354;SDS011;60314;55.040;73.076;2022-12-07T01:33:51;24.20;;;9.20;;
72354;SDS011;60314;55.040;73.076;2022-12-07T01:36:20;30.00;;;10.45;;
72354;SDS011;60314;55.040;73.076;2022-12-07T01:38:50;32.45;;;10.32;;
72354;SDS011;60314;55.040;73.076;2022-12-07T01:41:19;31.40;;;10.68;;
72354;SDS011;60314;55.040;73.076;2022-12-07T01:46:44;34.20;;;9.75;;
72354;SDS011;60314;55.040;73.076;2022-12-07T01:54:57;34.95;;;10.00;;
72354;SDS011;60314;55.040;73.076;2022-12-07T01:57:27;31.20;;;10.38;;
72354;SDS011;60314;55.040;73.076;2022-12-07T01:59:55;31.75;;;10.82;;
72354;SDS011;60314;55.040;73.076;2022-12-07T02:02:35;31.60;;;10.55;;
72354;SDS011;60314;55.040;73.076;2022-12-07T02:05:05;30.80;;;10.82;;
72354;SDS011;60314;55.040;73.076;2022-12-07T02:07:32;36.15;;;10.98;;
72354;SDS011;60314;55.040;73.076;2022-12-07T02:10:21;33.13;;;10.93;;
72354;SDS011;60314;55.040;73.076;2022-12-07T02:12:57;34.38;;;10.60;;
72354;SDS011;60314;55.040;73.076;2022-12-07T02:15:52;33.17;;;10.55;;
72354;SDS011;60314;55.040;73.076;2022-12-07T02:23:51;33.40;;;10.80;;
72354;SDS011;60314;55.040;73.076;2022-12-07T02:29:10;28.63;;;11.20;;
72354;SDS011;60314;55.040;73.076;2022-12-07T02:32:07;28.83;;;9.88;;
72354;SDS011;60314;55.040;73.076;2022-12-07T02:34:55;22.63;;;9.05;;
72354;SDS011;60314;55.040;73.076;2022-12-07T02:40:41;25.95;;;9.38;;
72354;SDS011;60314;55.040;73.076;2022-12-07T02:43:28;29.20;;;10.13;;
72354;SDS011;60314;55.040;73.076;2022-12-07T02:46:02;24.85;;;9.52;;
72354;SDS011;60314;55.040;73.076;2022-12-07T02:48:34;35.60;;;10.50;;
72354;SDS011;60314;55.040;73.076;2022-12-07T02:51:07;38.83;;;11.20;;
72354;SDS011;60314;55.040;73.076;2022-12-07T02:53:34;35.53;;;11.77;;
72354;SDS011;60314;55.040;73.076;2022-12-07T02:59:11;35.08;;;11.65;;
72354;SDS011;60314;55.040;73.076;2022-12-07T03:01:57;33.95;;;10.75;;
72354;SDS011;60314;55.040;73.076;2022-12-07T03:04:34;29.90;;;10.55;;
72354;SDS011;60314;55.040;73.076;2022-12-07T03:10:34;29.83;;;9.57;;
72354;SDS011;60314;55.040;73.076;2022-12-07T03:16:33;38.65;;;10.50;;
72354;SDS011;60314;55.040;73.076;2022-12-07T03:19:25;29.23;;;10.00;;
72354;SDS011;60314;55.040;73.076;2022-12-07T03:21:57;27.23;;;9.77;;
72354;SDS011;60314;55.040;73.076;2022-12-07T03:24:37;26.65;;;8.52;;
72354;SDS011;60314;55.040;73.076;2022-12-07T03:27:15;34.25;;;10.98;;
72354;SDS011;60314;55.040;73.076;2022-12-07T03:29:49;24.42;;;8.30;;
72354;SDS011;60314;55.040;73.076;2022-12-07T03:35:25;34.13;;;10.98;;
72354;SDS011;60314;55.040;73.076;2022-12-07T03:38:37;33.92;;;11.25;;
72354;SDS011;60314;55.040;73.076;2022-12-07T03:41:26;33.80;;;10.02;;
72354;SDS011;60314;55.040;73.076;2022-12-07T03:43:57;38.00;;;9.80;;
72354;SDS011;60314;55.040;73.076;2022-12-07T03:46:34;35.63;;;11.20;;
72354;SDS011;60314;55.040;73.076;2022-12-07T03:55:14;20.20;;;6.97;;
72354;SDS011;60314;55.040;73.076;2022-12-07T03:57:48;26.15;;;8.27;;
72354;SDS011;60314;55.040;73.076;2022-12-07T04:00:22;30.38;;;9.23;;
72354;SDS011;60314;55.040;73.076;2022-12-07T04:03:00;25.15;;;8.52;;
72354;SDS011;60314;55.040;73.076;2022-12-07T04:05:34;22.40;;;7.47;;
72354;SDS011;60314;55.040;73.076;2022-12-07T04:08:05;24.27;;;7.40;;
72354;SDS011;60314;55.040;73.076;2022-12-07T04:10:32;27.92;;;8.75;;
72354;SDS011;60314;55.040;73.076;2022-12-07T04:12:59;23.30;;;7.70;;
72354;SDS011;60314;55.040;73.076;2022-12-07T04:15:25;22.00;;;6.50;;
72354;SDS011;60314;55.040;73.076;2022-12-07T04:17:56;26.95;;;7.13;;
72354;SDS011;60314;55.040;73.076;2022-12-07T04:20:24;22.25;;;7.60;;
72354;SDS011;60314;55.040;73.076;2022-12-07T04:22:55;28.98;;;8.35;;
72354;SDS011;60314;55.040;73.076;2022-12-07T04:25:22;16.70;;;6.47;;
72354;SDS011;60314;55.040;73.076;2022-12-07T04:27:55;33.35;;;8.23;;
72354;SDS011;60314;55.040;73.076;2022-12-07T04:30:22;19.90;;;6.80;;
72354;SDS011;60314;55.040;73.076;2022-12-07T04:32:48;25.38;;;7.47;;
72354;SDS011;60314;55.040;73.076;2022-12-07T04:35:25;25.98;;;7.65;;
72354;SDS011;60314;55.040;73.076;2022-12-07T04:37:51;29.27;;;7.93;;
72354;SDS011;60314;55.040;73.076;2022-12-07T04:40:18;21.75;;;7.68;;
72354;SDS011;60314;55.040;73.076;2022-12-07T04:42:44;26.63;;;7.25;;
72354;SDS011;60314;55.040;73.076;2022-12-07T04:45:11;31.70;;;7.28;;
72354;SDS011;60314;55.040;73.076;2022-12-07T04:47:37;20.42;;;6.43;;
72354;SDS011;60314;55.040;73.076;2022-12-07T04:50:04;20.67;;;6.82;;
72354;SDS011;60314;55.040;73.076;2022-12-07T04:52:31;28.13;;;6.82;;
72354;SDS011;60314;55.040;73.076;2022-12-07T04:54:57;20.92;;;6.97;;
72354;SDS011;60314;55.040;73.076;2022-12-07T04:57:24;22.17;;;7.65;;
72354;SDS011;60314;55.040;73.076;2022-12-07T04:59:50;19.95;;;7.13;;
72354;SDS011;60314;55.040;73.076;2022-12-07T05:02:17;22.50;;;7.43;;
72354;SDS011;60314;55.040;73.076;2022-12-07T05:04:43;21.58;;;7.38;;
72354;SDS011;60314;55.040;73.076;2022-12-07T05:07:09;20.52;;;6.65;;
72354;SDS011;60314;55.040;73.076;2022-12-07T05:09:41;29.03;;;6.30;;
72354;SDS011;60314;55.040;73.076;2022-12-07T05:12:07;16.00;;;5.28;;
72354;SDS011;60314;55.040;73.076;2022-12-07T05:14:34;17.20;;;4.80;;
72354;SDS011;60314;55.040;73.076;2022-12-07T05:17:00;21.00;;;6.13;;
72354;SDS011;60314;55.040;73.076;2022-12-07T05:19:27;14.20;;;5.38;;
72354;SDS011;60314;55.040;73.076;2022-12-07T05:21:53;18.20;;;5.70;;
72354;SDS011;60314;55.040;73.076;2022-12-07T05:24:20;28.75;;;5.75;;
72354;SDS011;60314;55.040;73.076;2022-12-07T05:26:46;18.90;;;5.50;;
72354;SDS011;60314;55.040;73.076;2022-12-07T05:29:14;20.05;;;4.45;;
72354;SDS011;60314;55.040;73.076;2022-12-07T05:31:42;17.65;;;5.20;;
72354;SDS011;60314;55.040;73.076;2022-12-07T05:34:19;23.33;;;6.15;;
72354;SDS011;60314;55.040;73.076;2022-12-07T05:36:45;21.63;;;6.50;;
72354;SDS011;60314;55.040;73.076;2022-12-07T05:39:12;28.20;;;7.97;;
72354;SDS011;60314;55.040;73.076;2022-12-07T05:41:39;18.58;;;6.75;;
72354;SDS011;60314;55.040;73.076;2022-12-07T05:44:24;29.25;;;8.82;;
72354;SDS011;60314;55.040;73.076;2022-12-07T05:46:51;22.02;;;7.45;;
72354;SDS011;60314;55.040;73.076;2022-12-07T05:49:17;22.52;;;7.13;;
72354;SDS011;60314;55.040;73.076;2022-12-07T05:51:44;20.67;;;6.97;;
72354;SDS011;60314;55.040;73.076;2022-12-07T05:54:10;33.05;;;7.13;;
72354;SDS011;60314;55.040;73.076;2022-12-07T05:56:37;24.92;;;7.20;;
72354;SDS011;60314;55.040;73.076;2022-12-07T05:59:05;16.48;;;6.60;;
72354;SDS011;60314;55.040;73.076;2022-12-07T06:04:27;16.13;;;6.18;;
72354;SDS011;60314;55.040;73.076;2022-12-07T06:06:56;18.15;;;5.28;;
72354;SDS011;60314;55.040;73.076;2022-12-07T06:09:23;25.27;;;6.28;;
72354;SDS011;60314;55.040;73.076;2022-12-07T06:11:51;15.18;;;4.97;;
72354;SDS011;60314;55.040;73.076;2022-12-07T06:14:36;19.60;;;6.40;;
72354;SDS011;60314;55.040;73.076;2022-12-07T06:17:03;14.20;;;5.00;;
72354;SDS011;60314;55.040;73.076;2022-12-07T06:19:30;23.15;;;5.00;;
72354;SDS011;60314;55.040;73.076;2022-12-07T06:21:57;16.80;;;5.68;;
72354;SDS011;60314;55.040;73.076;2022-12-07T06:24:23;15.23;;;4.38;;
72354;SDS011;60314;55.040;73.076;2022-12-07T06:26:50;22.80;;;4.70;;
72354;SDS011;60314;55.040;73.076;2022-12-07T06:29:17;16.75;;;4.82;;
72354;SDS011;60314;55.040;73.076;2022-12-07T06:31:43;20.83;;;5.22;;
72354;SDS011;60314;55.040;73.076;2022-12-07T06:34:11;27.48;;;5.72;;
72354;SDS011;60314;55.040;73.076;2022-12-07T06:36:40;21.02;;;7.13;;
72354;SDS011;60314;55.040;73.076;2022-12-07T06:39:07;22.40;;;6.85;;
72354;SDS011;60314;55.040;73.076;2022-12-07T06:41:35;20.35;;;7.15;;
72354;SDS011;60314;55.040;73.076;2022-12-07T06:44:03;24.10;;;5.90;;
72354;SDS011;60314;55.040;73.076;2022-12-07T06:46:30;19.65;;;5.60;;
72354;SDS011;60314;55.040;73.076;2022-12-07T06:48:57;18.88;;;6.28;;
72354;SDS011;60314;55.040;73.076;2022-12-07T06:51:24;27.73;;;6.05;;
72354;SDS011;60314;55.040;73.076;2022-12-07T06:53:50;22.05;;;5.68;;
72354;SDS011;60314;55.040;73.076;2022-12-07T06:56:17;25.30;;;5.95;;
72354;SDS011;60314;55.040;73.076;2022-12-07T06:58:43;20.17;;;5.55;;
72354;SDS011;60314;55.040;73.076;2022-12-07T07:01:20;13.25;;;3.08;;
72354;SDS011;60314;55.040;73.076;2022-12-07T07:03:46;18.88;;;5.00;;
72354;SDS011;60314;55.040;73.076;2022-12-07T07:06:13;10.32;;;3.92;;
72354;SDS011;60314;55.040;73.076;2022-12-07T07:08:40;19.88;;;5.40;;
72354;SDS011;60314;55.040;73.076;2022-12-07T07:11:07;19.25;;;4.55;;
72354;SDS011;60314;55.040;73.076;2022-12-07T07:13:34;14.20;;;4.65;;
72354;SDS011;60314;55.040;73.076;2022-12-07T07:16:01;18.65;;;4.22;;
72354;SDS011;60314;55.040;73.076;2022-12-07T07:18:28;21.77;;;4.20;;
72354;SDS011;60314;55.040;73.076;2022-12-07T07:20:54;14.73;;;3.60;;
72354;SDS011;60314;55.040;73.076;2022-12-07T07:23:21;22.00;;;4.40;;
72354;SDS011;60314;55.040;73.076;2022-12-07T07:25:48;12.40;;;3.55;;
72354;SDS011;60314;55.040;73.076;2022-12-07T07:28:15;19.48;;;4.13;;
72354;SDS011;60314;55.040;73.076;2022-12-07T07:30:42;22.23;;;4.40;;
72354;SDS011;60314;55.040;73.076;2022-12-07T07:33:09;20.83;;;3.45;;
72354;SDS011;60314;55.040;73.076;2022-12-07T07:35:35;25.23;;;3.85;;
72354;SDS011;60314;55.040;73.076;2022-12-07T07:38:02;30.55;;;5.55;;
72354;SDS011;60314;55.040;73.076;2022-12-07T07:40:29;14.90;;;3.92;;
72354;SDS011;60314;55.040;73.076;2022-12-07T07:43:06;18.05;;;5.03;;
72354;SDS011;60314;55.040;73.076;2022-12-07T07:45:43;20.70;;;4.10;;
72354;SDS011;60314;55.040;73.076;2022-12-07T07:48:10;20.30;;;4.80;;
72354;SDS011;60314;55.040;73.076;2022-12-07T07:50:36;21.58;;;4.47;;
72354;SDS011;60314;55.040;73.076;2022-12-07T07:53:03;21.48;;;4.55;;
72354;SDS011;60314;55.040;73.076;2022-12-07T07:55:29;15.82;;;3.30;;
72354;SDS011;60314;55.040;73.076;2022-12-07T07:57:55;24.35;;;4.63;;
72354;SDS011;60314;55.040;73.076;2022-12-07T08:00:22;27.98;;;3.95;;
72354;SDS011;60314;55.040;73.076;2022-12-07T08:02:48;19.42;;;5.00;;
72354;SDS011;60314;55.040;73.076;2022-12-07T08:05:15;13.68;;;2.40;;
72354;SDS011;60314;55.040;73.076;2022-12-07T08:07:42;22.58;;;4.30;;
72354;SDS011;60314;55.040;73.076;2022-12-07T08:10:10;16.02;;;3.63;;
72354;SDS011;60314;55.040;73.076;2022-12-07T08:12:38;23.58;;;4.95;;
72354;SDS011;60314;55.040;73.076;2022-12-07T08:15:29;22.27;;;4.82;;
72354;SDS011;60314;55.040;73.076;2022-12-07T08:17:57;33.72;;;5.93;;
72354;SDS011;60314;55.040;73.076;2022-12-07T08:20:24;16.90;;;4.80;;
72354;SDS011;60314;55.040;73.076;2022-12-07T08:22:51;24.85;;;4.05;;
72354;SDS011;60314;55.040;73.076;2022-12-07T08:25:27;13.15;;;3.85;;
72354;SDS011;60314;55.040;73.076;2022-12-07T08:27:54;19.25;;;4.55;;
72354;SDS011;60314;55.040;73.076;2022-12-07T08:30:20;19.77;;;4.53;;
72354;SDS011;60314;55.040;73.076;2022-12-07T08:32:54;16.17;;;4.65;;
72354;SDS011;60314;55.040;73.076;2022-12-07T08:35:21;13.40;;;4.13;;
72354;SDS011;60314;55.040;73.076;2022-12-07T08:37:47;22.15;;;4.35;;
72354;SDS011;60314;55.040;73.076;2022-12-07T08:40:14;16.75;;;4.80;;
72354;SDS011;60314;55.040;73.076;2022-12-07T08:42:50;31.40;;;6.00;;
72354;SDS011;60314;55.040;73.076;2022-12-07T08:45:28;22.48;;;4.13;;
72354;SDS011;60314;55.040;73.076;2022-12-07T08:48:00;88.07;;;21.67;;
72354;SDS011;60314;55.040;73.076;2022-12-07T08:50:32;17.63;;;3.90;;
72354;SDS011;60314;55.040;73.076;2022-12-07T08:53:00;17.58;;;4.22;;
72354;SDS011;60314;55.040;73.076;2022-12-07T08:55:27;23.20;;;5.47;;
72354;SDS011;60314;55.040;73.076;2022-12-07T08:58:04;13.68;;;3.13;;
72354;SDS011;60314;55.040;73.076;2022-12-07T09:00:37;31.88;;;6.55;;
72354;SDS011;60314;55.040;73.076;2022-12-07T09:03:09;19.77;;;5.60;;
72354;SDS011;60314;55.040;73.076;2022-12-07T09:05:35;18.98;;;5.43;;
72354;SDS011;60314;55.040;73.076;2022-12-07T09:08:01;28.27;;;4.65;;
72354;SDS011;60314;55.040;73.076;2022-12-07T09:10:28;21.65;;;5.07;;
72354;SDS011;60314;55.040;73.076;2022-12-07T09:12:55;18.95;;;5.03;;
72354;SDS011;60314;55.040;73.076;2022-12-07T09:15:27;22.90;;;4.82;;
72354;SDS011;60314;55.040;73.076;2022-12-07T09:17:54;17.95;;;5.45;;
72354;SDS011;60314;55.040;73.076;2022-12-07T09:20:21;22.02;;;4.82;;
72354;SDS011;60314;55.040;73.076;2022-12-07T09:22:47;31.08;;;5.78;;
72354;SDS011;60314;55.040;73.076;2022-12-07T09:25:14;21.55;;;5.40;;
72354;SDS011;60314;55.040;73.076;2022-12-07T09:27:46;13.32;;;3.90;;
72354;SDS011;60314;55.040;73.076;2022-12-07T09:30:12;21.45;;;5.00;;
72354;SDS011;60314;55.040;73.076;2022-12-07T09:32:49;22.35;;;5.47;;
72354;SDS011;60314;55.040;73.076;2022-12-07T09:35:20;16.65;;;4.82;;
72354;SDS011;60314;55.040;73.076;2022-12-07T09:37:47;16.42;;;4.65;;
72354;SDS011;60314;55.040;73.076;2022-12-07T09:40:13;16.98;;;5.45;;
72354;SDS011;60314;55.040;73.076;2022-12-07T09:42:47;25.75;;;6.22;;
72354;SDS011;60314;55.040;73.076;2022-12-07T09:45:18;12.52;;;4.57;;
72354;SDS011;60314;55.040;73.076;2022-12-07T09:47:49;22.73;;;5.88;;
72354;SDS011;60314;55.040;73.076;2022-12-07T09:50:26;21.67;;;6.32;;
72354;SDS011;60314;55.040;73.076;2022-12-07T09:52:54;25.80;;;6.38;;
72354;SDS011;60314;55.040;73.076;2022-12-07T09:55:41;24.48;;;7.75;;
72354;SDS011;60314;55.040;73.076;2022-12-07T09:58:20;23.67;;;6.88;;
72354;SDS011;60314;55.040;73.076;2022-12-07T10:01:00;20.30;;;6.68;;
72354;SDS011;60314;55.040;73.076;2022-12-07T10:03:50;25.77;;;7.13;;
72354;SDS011;60314;55.040;73.076;2022-12-07T10:06:18;26.92;;;6.78;;
72354;SDS011;60314;55.040;73.076;2022-12-07T10:08:45;26.40;;;6.57;;
72354;SDS011;60314;55.040;73.076;2022-12-07T10:11:12;18.75;;;5.07;;
72354;SDS011;60314;55.040;73.076;2022-12-07T10:13:41;18.40;;;5.82;;
72354;SDS011;60314;55.040;73.076;2022-12-07T10:18:52;21.05;;;5.95;;
72354;SDS011;60314;55.040;73.076;2022-12-07T10:21:28;21.30;;;6.60;;
72354;SDS011;60314;55.040;73.076;2022-12-07T10:24:05;21.65;;;7.47;;
72354;SDS011;60314;55.040;73.076;2022-12-07T10:26:39;15.60;;;4.82;;
72354;SDS011;60314;55.040;73.076;2022-12-07T10:29:16;22.88;;;7.30;;
72354;SDS011;60314;55.040;73.076;2022-12-07T10:31:48;27.92;;;9.38;;
72354;SDS011;60314;55.040;73.076;2022-12-07T10:34:35;73.95;;;19.30;;
72354;SDS011;60314;55.040;73.076;2022-12-07T10:37:07;50.08;;;12.10;;
72354;SDS011;60314;55.040;73.076;2022-12-07T10:39:43;54.45;;;13.18;;
72354;SDS011;60314;55.040;73.076;2022-12-07T10:50:18;51.05;;;10.60;;
72354;SDS011;60314;55.040;73.076;2022-12-07T10:55:56;43.58;;;9.23;;
72354;SDS011;60314;55.040;73.076;2022-12-07T11:10:26;29.15;;;7.93;;
72354;SDS011;60314;55.040;73.076;2022-12-07T11:13:19;35.70;;;8.25;;
72354;SDS011;60314;55.040;73.076;2022-12-07T11:16:09;33.65;;;10.55;;
72354;SDS011;60314;55.040;73.076;2022-12-07T11:18:45;37.50;;;9.85;;
72354;SDS011;60314;55.040;73.076;2022-12-07T11:25:02;37.13;;;11.25;;
72354;SDS011;60314;55.040;73.076;2022-12-07T11:33:33;20.55;;;7.25;;
72354;SDS011;60314;55.040;73.076;2022-12-07T11:36:25;28.63;;;8.50;;
72354;SDS011;60314;55.040;73.076;2022-12-07T11:41:50;24.15;;;7.68;;
72354;SDS011;60314;55.040;73.076;2022-12-07T11:49:44;24.60;;;8.65;;
72354;SDS011;60314;55.040;73.076;2022-12-07T11:52:49;21.58;;;7.57;;
72354;SDS011;60314;55.040;73.076;2022-12-07T11:58:15;26.20;;;8.18;;
72354;SDS011;60314;55.040;73.076;2022-12-07T12:00:49;36.70;;;9.85;;
72354;SDS011;60314;55.040;73.076;2022-12-07T12:03:28;28.65;;;9.32;;
72354;SDS011;60314;55.040;73.076;2022-12-07T12:05:59;28.58;;;10.00;;
72354;SDS011;60314;55.040;73.076;2022-12-07T12:19:19;47.70;;;14.02;;
72354;SDS011;60314;55.040;73.076;2022-12-07T12:21:59;36.50;;;12.38;;
72354;SDS011;60314;55.040;73.076;2022-12-07T12:24:56;32.40;;;11.60;;
72354;SDS011;60314;55.040;73.076;2022-12-07T12:27:32;34.97;;;10.68;;
72354;SDS011;60314;55.040;73.076;2022-12-07T12:30:03;31.60;;;9.77;;
72354;SDS011;60314;55.040;73.076;2022-12-07T12:37:44;31.63;;;11.10;;
72354;SDS011;60314;55.040;73.076;2022-12-07T12:45:23;30.58;;;10.10;;
72354;SDS011;60314;55.040;73.076;2022-12-07T12:50:36;30.52;;;10.60;;
72354;SDS011;60314;55.040;73.076;2022-12-07T12:58:41;31.20;;;10.77;;
72354;SDS011;60314;55.040;73.076;2022-12-07T13:01:38;37.00;;;9.98;;
72354;SDS011;60314;55.040;73.076;2022-12-07T13:04:14;28.67;;;9.48;;
72354;SDS011;60314;55.040;73.076;2022-12-07T13:06:58;38.17;;;13.23;;
72354;SDS011;60314;55.040;73.076;2022-12-07T13:09:28;36.90;;;13.48;;
72354;SDS011;60314;55.040;73.076;2022-12-07T13:12:02;37.05;;;12.05;;
72354;SDS011;60314;55.040;73.076;2022-12-07T13:17:55;39.78;;;14.18;;
72354;SDS011;60314;55.040;73.076;2022-12-07T13:20:06;39.20;;;13.18;;
72354;SDS011;60314;55.040;73.076;2022-12-07T13:22:42;49.97;;;15.00;;
72354;SDS011;60314;55.040;73.076;2022-12-07T13:31:09;46.05;;;14.10;;
72354;SDS011;60314;55.040;73.076;2022-12-07T13:33:56;43.10;;;15.02;;
72354;SDS011;60314;55.040;73.076;2022-12-07T13:36:33;48.60;;;15.98;;
72354;SDS011;60314;55.040;73.076;2022-12-07T13:41:41;60.13;;;16.98;;
72354;SDS011;60314;55.040;73.076;2022-12-07T13:44:09;62.63;;;17.52;;
72354;SDS011;60314;55.040;73.076;2022-12-07T13:49:28;41.63;;;14.30;;
72354;SDS011;60314;55.040;73.076;2022-12-07T13:55:05;46.13;;;16.65;;
72354;SDS011;60314;55.040;73.076;2022-12-07T13:57:40;51.30;;;15.90;;
72354;SDS011;60314;55.040;73.076;2022-12-07T14:00:14;53.28;;;17.13;;
72354;SDS011;60314;55.040;73.076;2022-12-07T14:02:57;55.97;;;17.23;;
72354;SDS011;60314;55.040;73.076;2022-12-07T14:05:30;60.13;;;19.35;;
72354;SDS011;60314;55.040;73.076;2022-12-07T14:12:58;83.78;;;22.23;;
72354;SDS011;60314;55.040;73.076;2022-12-07T14:15:27;65.03;;;18.27;;
72354;SDS011;60314;55.040;73.076;2022-12-07T14:17:56;54.15;;;18.13;;
72354;SDS011;60314;55.040;73.076;2022-12-07T14:20:37;142.38;;;35.97;;
72354;SDS011;60314;55.040;73.076;2022-12-07T14:23:25;185.57;;;41.10;;
72354;SDS011;60314;55.040;73.076;2022-12-07T14:25:53;186.18;;;44.60;;
72354;SDS011;60314;55.040;73.076;2022-12-07T14:28:27;141.52;;;39.70;;
72354;SDS011;60314;55.040;73.076;2022-12-07T14:31:10;198.93;;;47.78;;
72354;SDS011;60314;55.040;73.076;2022-12-07T14:33:44;212.13;;;50.75;;
72354;SDS011;60314;55.040;73.076;2022-12-07T14:36:18;246.50;;;58.42;;
72354;SDS011;60314;55.040;73.076;2022-12-07T14:38:45;210.32;;;53.58;;
72354;SDS011;60314;55.040;73.076;2022-12-07T14:41:17;183.75;;;49.15;;
72354;SDS011;60314;55.040;73.076;2022-12-07T14:44:12;159.38;;;43.13;;
72354;SDS011;60314;55.040;73.076;2022-12-07T14:46:39;113.97;;;33.58;;
72354;SDS011;60314;55.040;73.076;2022-12-07T14:49:05;101.38;;;31.08;;
72354;SDS011;60314;55.040;73.076;2022-12-07T14:51:42;93.85;;;29.48;;
72354;SDS011;60314;55.040;73.076;2022-12-07T14:54:17;103.03;;;31.55;;
72354;SDS011;60314;55.040;73.076;2022-12-07T14:56:46;70.65;;;24.60;;
72354;SDS011;60314;55.040;73.076;2022-12-07T14:59:15;96.30;;;28.67;;
72354;SDS011;60314;55.040;73.076;2022-12-07T15:01:42;92.35;;;28.13;;
72354;SDS011;60314;55.040;73.076;2022-12-07T15:04:09;91.30;;;26.20;;
72354;SDS011;60314;55.040;73.076;2022-12-07T15:06:35;100.18;;;30.52;;
72354;SDS011;60314;55.040;73.076;2022-12-07T15:09:02;102.38;;;32.25;;
72354;SDS011;60314;55.040;73.076;2022-12-07T15:11:29;85.63;;;27.95;;
72354;SDS011;60314;55.040;73.076;2022-12-07T15:14:01;79.88;;;27.50;;
72354;SDS011;60314;55.040;73.076;2022-12-07T15:16:40;77.63;;;23.55;;
72354;SDS011;60314;55.040;73.076;2022-12-07T15:19:12;71.57;;;20.88;;
72354;SDS011;60314;55.040;73.076;2022-12-07T15:21:56;56.03;;;18.45;;
72354;SDS011;60314;55.040;73.076;2022-12-07T15:24:25;60.92;;;18.17;;
72354;SDS011;60314;55.040;73.076;2022-12-07T15:26:52;66.68;;;19.98;;
72354;SDS011;60314;55.040;73.076;2022-12-07T15:29:19;50.83;;;15.98;;
72354;SDS011;60314;55.040;73.076;2022-12-07T15:31:47;78.20;;;20.52;;
72354;SDS011;60314;55.040;73.076;2022-12-07T15:34:15;48.25;;;16.85;;
72354;SDS011;60314;55.040;73.076;2022-12-07T15:36:42;51.10;;;17.85;;
72354;SDS011;60314;55.040;73.076;2022-12-07T15:39:08;49.50;;;17.40;;
72354;SDS011;60314;55.040;73.076;2022-12-07T15:41:35;62.10;;;21.67;;
72354;SDS011;60314;55.040;73.076;2022-12-07T15:44:02;63.35;;;19.40;;
72354;SDS011;60314;55.040;73.076;2022-12-07T15:46:47;62.10;;;20.80;;
72354;SDS011;60314;55.040;73.076;2022-12-07T15:49:14;38.63;;;13.82;;
72354;SDS011;60314;55.040;73.076;2022-12-07T15:51:47;42.60;;;15.10;;
72354;SDS011;60314;55.040;73.076;2022-12-07T15:54:24;50.22;;;17.30;;
72354;SDS011;60314;55.040;73.076;2022-12-07T15:56:53;53.22;;;18.52;;
72354;SDS011;60314;55.040;73.076;2022-12-07T15:59:21;45.75;;;16.75;;
72354;SDS011;60314;55.040;73.076;2022-12-07T16:01:54;55.30;;;18.35;;
72354;SDS011;60314;55.040;73.076;2022-12-07T16:04:20;57.13;;;18.85;;
72354;SDS011;60314;55.040;73.076;2022-12-07T16:06:47;54.28;;;18.02;;
72354;SDS011;60314;55.040;73.076;2022-12-07T16:09:13;50.45;;;17.55;;
72354;SDS011;60314;55.040;73.076;2022-12-07T16:11:45;66.97;;;19.00;;
72354;SDS011;60314;55.040;73.076;2022-12-07T16:14:12;58.05;;;17.92;;
72354;SDS011;60314;55.040;73.076;2022-12-07T16:16:38;67.53;;;20.02;;
72354;SDS011;60314;55.040;73.076;2022-12-07T16:19:05;62.83;;;20.73;;
72354;SDS011;60314;55.040;73.076;2022-12-07T16:21:33;51.97;;;16.45;;
72354;SDS011;60314;55.040;73.076;2022-12-07T16:24:12;50.13;;;14.90;;
72354;SDS011;60314;55.040;73.076;2022-12-07T16:26:40;51.92;;;13.75;;
72354;SDS011;60314;55.040;73.076;2022-12-07T16:29:09;48.90;;;15.13;;
72354;SDS011;60314;55.040;73.076;2022-12-07T16:31:37;39.65;;;12.15;;
72354;SDS011;60314;55.040;73.076;2022-12-07T16:34:04;42.88;;;13.82;;
72354;SDS011;60314;55.040;73.076;2022-12-07T16:36:31;53.97;;;15.48;;
72354;SDS011;60314;55.040;73.076;2022-12-07T16:38:58;41.47;;;11.90;;
72354;SDS011;60314;55.040;73.076;2022-12-07T16:41:30;49.88;;;15.25;;
72354;SDS011;60314;55.040;73.076;2022-12-07T16:43:58;44.85;;;15.63;;
72354;SDS011;60314;55.040;73.076;2022-12-07T16:46:29;43.67;;;15.10;;
72354;SDS011;60314;55.040;73.076;2022-12-07T16:49:10;33.33;;;11.90;;
72354;SDS011;60314;55.040;73.076;2022-12-07T16:51:38;37.57;;;10.77;;
72354;SDS011;60314;55.040;73.076;2022-12-07T16:54:05;44.13;;;12.73;;
72354;SDS011;60314;55.040;73.076;2022-12-07T16:56:31;36.03;;;10.40;;
72354;SDS011;60314;55.040;73.076;2022-12-07T16:58:58;36.33;;;12.98;;
72354;SDS011;60314;55.040;73.076;2022-12-07T17:01:25;40.60;;;11.40;;
72354;SDS011;60314;55.040;73.076;2022-12-07T17:04:00;25.45;;;8.90;;
72354;SDS011;60314;55.040;73.076;2022-12-07T17:06:29;35.15;;;9.07;;